KCSV

Crossville Memorial-Whitson Field Airport

Crossville, Tennessee, USA
KCSV 210531Z 2106/2206 24003KT P6SM SCT080 BKN150 FM210900 24003KT 6SM -SHRA BKN050 OVC080 FM211000 22007KT 4SM -SHRA BKN020 OVC050 FM211800 19007KT 4SM -TSRA BKN011 OVC020CB FM212300 24006KT P6SM VCTS BKN025CB OVC060
Issued Valid From Valid To
Jun-21 @ 05:31 UTC
(5 hours ago)
Jun-21 @ 06:00 UTC
(4 hours ago)
Jun-22 @ 06:00 UTC
(in 20 hours)
Expired Click to View Jun-21 @ 06:00 to Jun-21 @ 09:00
KCSV 210531Z 2106/2206 24003KT P6SM SCT080 BKN150
Wind Visibility Clouds
240° at 3 knots Greater than 6 miles
  • Scattered at 8,000' AGL
  • Broken at 15,000' AGL
Expired Click to View Jun-21 @ 09:00 to Jun-21 @ 10:00
FM210900 24003KT 6SM -SHRA BKN050 OVC080
Wind Visibility Clouds Conditions
240° at 3 knots 6 miles
  • Broken at 5,000' AGL
  • Overcast at 8,000' AGL
  • Light Rain
From Jun-21 @ 10:00 to Jun-21 @ 18:00
FM211000 22007KT 4SM -SHRA BKN020 OVC050
Wind Visibility Clouds Conditions
220° at 7 knots 4 miles
  • Broken at 2,000' AGL
  • Overcast at 5,000' AGL
  • Light Rain
From Jun-21 @ 18:00 to Jun-21 @ 23:00
FM211800 19007KT 4SM -TSRA BKN011 OVC020CB
Wind Visibility Clouds Conditions
190° at 7 knots 4 miles
  • Broken at 1,100' AGL
  • Overcast at 2,000' AGL
  • Light Thunderstorm
  • Light Rain
From Jun-21 @ 23:00 to Jun-22 @ 06:00
FM212300 24006KT P6SM VCTS BKN025CB OVC060
Wind Visibility Clouds Conditions
240° at 6 knots Greater than 6 miles
  • Broken at 2,500' AGL
  • Overcast at 6,000' AGL
  • Area Thunderstorm
KCSV 210531Z 2106/2206 24003KT P6SM SCT080 BKN150 FM210900 24003KT 6SM -SHRA BKN050 OVC080 FM211000 22007KT 4SM -SHRA BKN020 OVC050 FM211800 19007KT 4SM -TSRA BKN011 OVC020CB FM212300 24006KT P6SM VCTS BKN025CB OVC060
Issued Jun-21 @ 05:31 UTC
(5 hours ago)
Valid From Jun-21 @ 06:00 UTC
(4 hours ago)
Valid To Jun-22 @ 06:00 UTC
(in 20 hours)
Jun-21 @ 06:00 - Jun-21 @ 09:00
Wind Visibility
240° at 3 knots Greater than 6 miles
Clouds
  • Scattered at 8,000' AGL
  • Broken at 15,000' AGL
Jun-21 @ 09:00 - Jun-21 @ 10:00
Wind Visibility
240° at 3 knots 6 miles
Clouds
  • Broken at 5,000' AGL
  • Overcast at 8,000' AGL
Conditions
  • Light Rain
From Jun-21 @ 10:00 - Jun-21 @ 18:00
Wind Visibility
220° at 7 knots 4 miles
Clouds
  • Broken at 2,000' AGL
  • Overcast at 5,000' AGL
Conditions
  • Light Rain
From Jun-21 @ 18:00 - Jun-21 @ 23:00
Wind Visibility
190° at 7 knots 4 miles
Clouds
  • Broken at 1,100' AGL
  • Overcast at 2,000' AGL
Conditions
  • Light Thunderstorm
  • Light Rain
From Jun-21 @ 23:00 - Jun-22 @ 06:00
Wind Visibility
240° at 6 knots Greater than 6 miles
Clouds
  • Broken at 2,500' AGL
  • Overcast at 6,000' AGL
Conditions
  • Area Thunderstorm